createdAt,value
2022-08-31T00:00:10.989Z,66.27
2022-08-31T00:01:10.913Z,66.47
2022-08-31T00:02:10.941Z,66.17
2022-08-31T00:03:10.930Z,66.47
2022-08-31T00:04:10.978Z,65.97
2022-08-31T00:05:11.021Z,66.67
2022-08-31T00:06:10.836Z,66.67
2022-08-31T00:07:10.825Z,66.47
2022-08-31T00:08:10.835Z,66.27
2022-08-31T00:09:10.835Z,66.47
2022-08-31T00:10:10.844Z,66.57
2022-08-31T00:11:10.812Z,66.57
2022-08-31T00:12:10.867Z,66.17
2022-08-31T00:13:10.787Z,67.18
2022-08-31T00:14:13.045Z,66.47
2022-08-31T00:15:10.824Z,66.27
2022-08-31T00:16:10.865Z,67.38
2022-08-31T00:17:10.709Z,67.38
2022-08-31T00:18:10.811Z,67.78
2022-08-31T00:19:10.783Z,67.27
2022-08-31T00:20:32.550Z,67.47
2022-08-31T00:21:11.724Z,67.47
2022-08-31T00:22:10.668Z,67.38
2022-08-31T00:23:10.741Z,67.18
2022-08-31T00:24:10.643Z,67.47
2022-08-31T00:25:10.684Z,67.58
2022-08-31T00:26:10.635Z,67.58
2022-08-31T00:27:10.599Z,67.68
2022-08-31T00:28:10.568Z,67.68
2022-08-31T00:29:10.600Z,67.68
2022-08-31T00:30:10.620Z,67.78
2022-08-31T00:31:10.576Z,67.68
2022-08-31T00:32:10.711Z,67.68
2022-08-31T00:33:10.588Z,67.68
2022-08-31T00:34:10.537Z,67.78
2022-08-31T00:35:10.519Z,67.58
2022-08-31T00:36:10.600Z,67.68
2022-08-31T00:37:10.537Z,67.68
2022-08-31T00:38:10.699Z,67.98
2022-08-31T00:39:10.501Z,68.38
2022-08-31T00:40:10.609Z,68.38
2022-08-31T00:41:10.493Z,67.88
2022-08-31T00:42:10.452Z,67.98
2022-08-31T00:43:10.460Z,69.18
2022-08-31T00:44:10.423Z,68.28
2022-08-31T00:45:10.419Z,68.88
2022-08-31T00:46:10.526Z,68.18
2022-08-31T00:47:10.387Z,68.28
2022-08-31T00:48:10.408Z,68.18
2022-08-31T00:49:10.411Z,68.38
2022-08-31T00:50:10.343Z,68.48
2022-08-31T00:51:10.331Z,67.98
2022-08-31T00:52:10.335Z,68.08
2022-08-31T00:53:10.388Z,68.31
2022-08-31T00:54:10.304Z,68.28
2022-08-31T00:55:10.384Z,68.48
2022-08-31T00:56:11.159Z,68.28
2022-08-31T00:57:10.268Z,68.28
2022-08-31T00:58:10.322Z,69.02
2022-08-31T00:59:10.308Z,69.72
2022-08-31T01:00:10.276Z,69.92
2022-08-31T01:01:10.334Z,69.72
2022-08-31T01:02:10.391Z,70.23
2022-08-31T01:03:10.215Z,69.92
2022-08-31T01:04:10.203Z,70.03
2022-08-31T01:05:10.307Z,69.72
2022-08-31T01:06:10.201Z,70.43
2022-08-31T01:07:10.205Z,70.46
2022-08-31T01:08:10.367Z,70.63
2022-08-31T01:09:10.235Z,70.66
2022-08-31T01:10:10.186Z,71.33
2022-08-31T01:11:10.144Z,71.16
2022-08-31T01:12:10.139Z,70.86
2022-08-31T01:13:10.120Z,71.16
2022-08-31T01:14:11.196Z,70.96
2022-08-31T01:15:10.157Z,71.47
2022-08-31T01:16:10.211Z,71.97
2022-08-31T01:17:10.116Z,71.50
2022-08-31T01:18:10.138Z,71.67
2022-08-31T01:19:10.097Z,71.97
2022-08-31T01:20:10.056Z,71.67
2022-08-31T01:21:10.180Z,71.97
2022-08-31T01:22:10.101Z,72.11
2022-08-31T01:23:10.061Z,72.20
2022-08-31T01:24:10.038Z,72.07
2022-08-31T01:25:10.030Z,72.31
2022-08-31T01:26:11.515Z,72.31
2022-08-31T01:27:10.001Z,72.31
2022-08-31T01:28:09.997Z,72.61
2022-08-31T01:29:09.992Z,72.61
2022-08-31T01:30:09.964Z,72.41
2022-08-31T01:31:10.000Z,72.41
2022-08-31T01:32:09.949Z,72.57
2022-08-31T01:33:09.913Z,72.67
2022-08-31T01:34:09.941Z,72.71
2022-08-31T01:35:11.265Z,73.01
2022-08-31T01:36:14.184Z,73.11
2022-08-31T01:37:11.893Z,73.01
2022-08-31T01:38:10.621Z,73.55
2022-08-31T01:39:09.849Z,73.35
2022-08-31T01:40:09.893Z,73.52
2022-08-31T01:41:09.862Z,73.65
2022-08-31T01:42:09.853Z,74.42
2022-08-31T01:43:09.834Z,73.75
2022-08-31T01:44:09.820Z,73.75
2022-08-31T01:45:09.794Z,73.52
2022-08-31T01:46:09.898Z,73.61
2022-08-31T01:47:11.103Z,73.85
2022-08-31T01:48:09.774Z,73.52
2022-08-31T01:49:09.792Z,73.72
2022-08-31T01:50:09.740Z,74.05
2022-08-31T01:51:10.810Z,74.55
2022-08-31T01:52:09.711Z,74.76
2022-08-31T01:53:09.722Z,74.86
2022-08-31T01:54:09.728Z,74.96
2022-08-31T01:55:09.690Z,75.06
2022-08-31T01:56:10.051Z,75.16
2022-08-31T01:57:09.713Z,75.16
2022-08-31T01:58:09.706Z,75.06
2022-08-31T01:59:10.177Z,75.06
2022-08-31T02:00:09.728Z,75.26
2022-08-31T02:01:31.204Z,75.67
2022-08-31T02:02:10.747Z,75.67
2022-08-31T02:03:10.136Z,75.76
2022-08-31T02:04:09.723Z,76.07
2022-08-31T02:05:09.628Z,76.00
2022-08-31T02:06:09.583Z,75.50
2022-08-31T02:07:09.700Z,76.20
2022-08-31T02:08:09.719Z,76.61
2022-08-31T02:09:10.062Z,76.51
2022-08-31T02:10:12.854Z,76.61
2022-08-31T02:11:09.828Z,77.11
2022-08-31T02:12:09.563Z,77.75
2022-08-31T02:13:09.588Z,77.31
2022-08-31T02:14:09.552Z,77.86
2022-08-31T02:15:09.567Z,77.95
2022-08-31T02:16:09.556Z,77.25
2022-08-31T02:17:43.075Z,77.25
2022-08-31T02:18:10.124Z,78.06
2022-08-31T02:19:10.204Z,77.66
2022-08-31T02:20:10.209Z,77.66
2022-08-31T02:21:10.140Z,77.35
2022-08-31T02:22:10.164Z,77.75
2022-08-31T02:23:09.576Z,77.66
2022-08-31T02:24:11.026Z,77.95
2022-08-31T02:25:09.463Z,78.16
2022-08-31T02:26:09.350Z,77.95
2022-08-31T02:27:09.328Z,78.36
2022-08-31T02:28:09.355Z,77.95
2022-08-31T02:29:09.447Z,78.16
2022-08-31T02:30:10.109Z,77.55
2022-08-31T02:31:09.467Z,77.95
2022-08-31T02:32:19.442Z,77.66
2022-08-31T02:33:10.415Z,78.16
2022-08-31T02:34:09.432Z,78.56
2022-08-31T02:35:09.237Z,78.16
2022-08-31T02:36:09.500Z,79.21
2022-08-31T02:37:11.028Z,78.70
2022-08-31T02:38:09.221Z,78.59
2022-08-31T02:39:09.201Z,79.50
2022-08-31T02:40:12.027Z,78.36
2022-08-31T02:41:09.408Z,79.10
2022-08-31T02:42:09.173Z,78.39
2022-08-31T02:43:09.152Z,78.36
2022-08-31T02:44:09.161Z,78.86
2022-08-31T02:45:09.146Z,78.76
2022-08-31T02:46:09.274Z,78.66
2022-08-31T02:47:09.165Z,78.50
2022-08-31T02:48:09.133Z,79.30
2022-08-31T02:49:09.075Z,79.36
2022-08-31T02:50:09.077Z,78.46
2022-08-31T02:51:09.111Z,78.86
2022-08-31T02:52:09.068Z,78.96
2022-08-31T02:53:09.044Z,78.36
2022-08-31T02:54:09.041Z,78.86
2022-08-31T02:55:09.029Z,78.86
2022-08-31T02:56:09.042Z,78.76
2022-08-31T02:57:09.009Z,79.06
2022-08-31T02:58:09.021Z,78.66
2022-08-31T02:59:08.973Z,78.96
2022-08-31T03:00:09.050Z,78.56
2022-08-31T03:01:08.982Z,79.16
2022-08-31T03:02:09.083Z,78.76
2022-08-31T03:03:08.979Z,79.67
2022-08-31T03:04:08.951Z,79.06
2022-08-31T03:05:08.946Z,79.06
2022-08-31T03:06:09.014Z,79.16
2022-08-31T03:07:08.930Z,79.50
2022-08-31T03:08:08.873Z,79.41
2022-08-31T03:09:08.866Z,79.06
2022-08-31T03:10:08.870Z,79.16
2022-08-31T03:11:08.890Z,79.47
2022-08-31T03:12:08.859Z,79.21
2022-08-31T03:13:08.847Z,80.01
2022-08-31T03:14:08.828Z,79.57
2022-08-31T03:15:08.807Z,79.57
2022-08-31T03:16:08.864Z,79.57
2022-08-31T03:17:08.845Z,79.67
2022-08-31T03:18:08.787Z,79.57
2022-08-31T03:19:08.751Z,79.57
2022-08-31T03:20:08.778Z,79.77
2022-08-31T03:21:08.735Z,79.71
2022-08-31T03:22:08.747Z,80.41
2022-08-31T03:23:08.748Z,80.21
2022-08-31T03:24:08.706Z,80.18
2022-08-31T03:25:08.701Z,79.97
2022-08-31T03:26:08.722Z,79.67
2022-08-31T03:27:08.675Z,79.67
2022-08-31T03:28:08.671Z,79.57
2022-08-31T03:29:08.694Z,79.67
2022-08-31T03:30:08.675Z,79.57
2022-08-31T03:31:08.736Z,79.67
2022-08-31T03:32:08.604Z,79.77
2022-08-31T03:33:08.655Z,79.47
2022-08-31T03:34:08.621Z,79.27
2022-08-31T03:35:09.597Z,78.76
2022-08-31T03:36:08.570Z,78.66
2022-08-31T03:37:08.604Z,78.86
2022-08-31T03:38:08.591Z,79.27
2022-08-31T03:39:08.579Z,79.27
2022-08-31T03:40:08.604Z,79.36
2022-08-31T03:41:08.551Z,79.57
2022-08-31T03:42:08.515Z,79.16
2022-08-31T03:43:09.587Z,79.16
2022-08-31T03:44:08.503Z,79.47
2022-08-31T03:45:08.680Z,79.57
2022-08-31T03:46:12.153Z,80.01
2022-08-31T03:47:08.453Z,79.61
2022-08-31T03:48:12.172Z,79.67
2022-08-31T03:49:09.444Z,79.77
2022-08-31T03:50:08.438Z,79.71
2022-08-31T03:51:08.437Z,79.57
2022-08-31T03:52:08.389Z,79.27
2022-08-31T03:53:08.391Z,79.61
2022-08-31T03:54:08.370Z,80.21
2022-08-31T03:55:08.388Z,80.38
2022-08-31T03:56:08.373Z,80.41
2022-08-31T03:57:08.364Z,80.62
2022-08-31T03:58:09.329Z,80.51
2022-08-31T03:59:08.408Z,80.31
2022-08-31T04:00:08.332Z,80.21
2022-08-31T04:01:09.167Z,80.31
2022-08-31T04:02:08.353Z,80.62
2022-08-31T04:03:09.045Z,80.82
2022-08-31T04:04:08.266Z,81.12
2022-08-31T04:05:08.272Z,80.92
2022-08-31T04:06:08.256Z,80.82
2022-08-31T04:07:08.284Z,80.92
2022-08-31T04:08:08.233Z,81.22
2022-08-31T04:09:08.401Z,80.82
2022-08-31T04:10:08.216Z,80.85
2022-08-31T04:11:08.276Z,80.82
2022-08-31T04:12:08.205Z,81.32
2022-08-31T04:13:08.377Z,81.42
2022-08-31T04:14:08.149Z,81.36
2022-08-31T04:15:08.181Z,81.36
2022-08-31T04:16:08.226Z,81.42
2022-08-31T04:17:08.996Z,81.67
2022-08-31T04:18:08.417Z,81.36
2022-08-31T04:19:08.197Z,81.87
2022-08-31T04:20:08.102Z,81.87
2022-08-31T04:21:08.079Z,81.56
2022-08-31T04:22:08.197Z,82.07
2022-08-31T04:23:08.098Z,81.96
2022-08-31T04:24:08.054Z,81.87
2022-08-31T04:25:08.021Z,81.87
2022-08-31T04:26:08.029Z,81.96
2022-08-31T04:27:08.057Z,81.87
2022-08-31T04:28:08.031Z,81.87
2022-08-31T04:29:12.767Z,81.96
2022-08-31T04:30:08.026Z,81.87
2022-08-31T04:31:08.009Z,81.96
2022-08-31T04:32:07.974Z,82.03
2022-08-31T04:33:07.953Z,82.03
2022-08-31T04:34:07.943Z,81.62
2022-08-31T04:35:07.994Z,81.52
2022-08-31T04:36:07.921Z,81.42
2022-08-31T04:37:07.905Z,81.42
2022-08-31T04:38:07.923Z,82.07
2022-08-31T04:39:07.895Z,82.37
2022-08-31T04:40:07.889Z,82.17
2022-08-31T04:41:07.975Z,81.96
2022-08-31T04:42:07.832Z,81.82
2022-08-31T04:43:07.835Z,81.82
2022-08-31T04:44:07.862Z,81.82
2022-08-31T04:45:07.820Z,81.67
2022-08-31T04:46:07.883Z,81.87
2022-08-31T04:47:07.824Z,81.87
2022-08-31T04:48:07.779Z,81.96
2022-08-31T04:49:07.755Z,81.73
2022-08-31T04:50:07.783Z,81.82
2022-08-31T04:51:07.740Z,81.73
2022-08-31T04:52:07.748Z,81.73
2022-08-31T04:53:07.744Z,81.73
2022-08-31T04:54:07.715Z,81.73
2022-08-31T04:55:07.723Z,81.93
2022-08-31T04:56:07.704Z,81.73
2022-08-31T04:57:07.690Z,81.42
2022-08-31T04:58:07.667Z,81.22
2022-08-31T04:59:07.692Z,81.12
2022-08-31T05:00:07.670Z,81.32
2022-08-31T05:01:07.691Z,81.32
2022-08-31T05:02:07.726Z,81.42
2022-08-31T05:03:07.706Z,81.32
2022-08-31T05:04:07.623Z,81.22
2022-08-31T05:05:07.613Z,81.32
2022-08-31T05:06:07.591Z,81.22
2022-08-31T05:07:07.607Z,81.12
2022-08-31T05:08:08.370Z,81.22
2022-08-31T05:09:07.556Z,81.08
2022-08-31T05:10:07.553Z,81.28
2022-08-31T05:11:07.552Z,80.92
2022-08-31T05:12:07.600Z,80.82
2022-08-31T05:13:07.525Z,80.88
2022-08-31T05:14:07.501Z,80.88
2022-08-31T05:15:07.492Z,80.82
2022-08-31T05:16:07.529Z,80.78
2022-08-31T05:17:09.798Z,80.82
2022-08-31T05:18:07.457Z,80.78
2022-08-31T05:19:07.446Z,80.68
2022-08-31T05:20:07.449Z,80.47
2022-08-31T05:21:07.465Z,80.88
2022-08-31T05:22:07.430Z,81.08
2022-08-31T05:23:07.422Z,81.12
2022-08-31T05:24:07.385Z,81.38
2022-08-31T05:25:07.385Z,81.08
2022-08-31T05:26:07.355Z,81.22
2022-08-31T05:27:07.385Z,81.42
2022-08-31T05:28:07.349Z,81.42
2022-08-31T05:29:07.329Z,82.03
2022-08-31T05:30:07.329Z,82.13
2022-08-31T05:31:07.352Z,82.13
2022-08-31T05:32:08.137Z,82.47
2022-08-31T05:33:07.278Z,82.47
2022-08-31T05:34:07.318Z,82.78
2022-08-31T05:35:07.266Z,82.57
2022-08-31T05:36:07.273Z,82.47
2022-08-31T05:37:07.251Z,82.17
2022-08-31T05:38:07.239Z,82.47
2022-08-31T05:39:07.218Z,82.78
2022-08-31T05:40:07.309Z,82.33
2022-08-31T05:41:07.203Z,82.43
2022-08-31T05:42:07.211Z,82.43
2022-08-31T05:43:07.226Z,82.03
2022-08-31T05:44:07.186Z,81.93
2022-08-31T05:45:08.246Z,82.13
2022-08-31T05:46:10.257Z,81.93
2022-08-31T05:47:08.198Z,81.73
2022-08-31T05:48:07.130Z,81.93
2022-08-31T05:49:07.168Z,81.82
2022-08-31T05:50:08.386Z,81.82
2022-08-31T05:51:07.131Z,81.52
2022-08-31T05:52:07.114Z,81.82
2022-08-31T05:53:07.090Z,81.82
2022-08-31T05:54:07.052Z,81.93
2022-08-31T05:55:07.199Z,81.73
2022-08-31T05:56:07.050Z,81.93
2022-08-31T05:57:07.068Z,82.03
2022-08-31T05:58:07.026Z,82.23
2022-08-31T05:59:07.016Z,81.82
2022-08-31T06:00:06.971Z,81.93
2022-08-31T06:01:06.982Z,81.79
2022-08-31T06:02:07.107Z,81.48
2022-08-31T06:03:06.983Z,81.18
2022-08-31T06:04:06.961Z,81.22
2022-08-31T06:05:06.973Z,81.42
2022-08-31T06:06:06.976Z,81.93
2022-08-31T06:07:07.151Z,82.03
2022-08-31T06:08:06.904Z,81.82
2022-08-31T06:09:06.893Z,81.82
2022-08-31T06:10:06.883Z,82.03
2022-08-31T06:11:06.872Z,81.73
2022-08-31T06:12:06.898Z,81.73
2022-08-31T06:13:06.884Z,81.73
2022-08-31T06:14:06.828Z,81.82
2022-08-31T06:15:06.855Z,81.79
2022-08-31T06:16:06.825Z,81.38
2022-08-31T06:17:06.791Z,81.79
2022-08-31T06:18:06.788Z,81.38
2022-08-31T06:19:06.821Z,81.18
2022-08-31T06:20:06.788Z,81.08
2022-08-31T06:21:06.759Z,81.18
2022-08-31T06:22:06.733Z,81.18
2022-08-31T06:23:06.816Z,81.18
2022-08-31T06:24:06.737Z,81.18
2022-08-31T06:25:06.730Z,81.08
2022-08-31T06:26:06.668Z,80.88
2022-08-31T06:27:06.665Z,80.88
2022-08-31T06:28:06.662Z,80.88
2022-08-31T06:29:06.685Z,80.84
2022-08-31T06:30:07.173Z,80.54
2022-08-31T06:31:06.678Z,80.44
2022-08-31T06:32:06.640Z,80.04
2022-08-31T06:33:06.620Z,80.07
2022-08-31T06:34:06.661Z,80.04
2022-08-31T06:35:06.621Z,80.07
2022-08-31T06:36:06.605Z,80.78
2022-08-31T06:37:06.605Z,80.88
2022-08-31T06:38:06.566Z,81.18
2022-08-31T06:39:06.581Z,81.28
2022-08-31T06:40:06.654Z,81.38
2022-08-31T06:41:06.558Z,81.18
2022-08-31T06:42:06.533Z,81.48
2022-08-31T06:43:06.538Z,81.48
2022-08-31T06:44:06.541Z,81.28
2022-08-31T06:45:06.501Z,81.32
2022-08-31T06:46:06.674Z,81.32
2022-08-31T06:47:06.565Z,81.22
2022-08-31T06:48:06.462Z,81.62
2022-08-31T06:49:08.731Z,81.73
2022-08-31T06:50:06.465Z,81.82
2022-08-31T06:51:06.435Z,82.13
2022-08-31T06:52:06.650Z,82.03
2022-08-31T06:53:06.401Z,82.03
2022-08-31T06:54:27.545Z,82.13
2022-08-31T06:55:08.421Z,82.03
2022-08-31T06:56:06.405Z,81.73
2022-08-31T06:57:07.352Z,81.79
2022-08-31T06:58:06.555Z,81.42
2022-08-31T06:59:06.427Z,81.73
2022-08-31T07:00:06.350Z,81.73
2022-08-31T07:01:06.331Z,81.48
2022-08-31T07:02:06.525Z,81.48
2022-08-31T07:03:06.350Z,81.38
2022-08-31T07:04:06.329Z,81.48
2022-08-31T07:05:06.371Z,81.38
2022-08-31T07:06:06.303Z,81.18
2022-08-31T07:07:06.238Z,80.78
2022-08-31T07:08:06.302Z,80.78
2022-08-31T07:09:06.282Z,80.58
2022-08-31T07:10:06.455Z,80.94
2022-08-31T07:11:06.270Z,80.84
2022-08-31T07:12:06.219Z,80.13
2022-08-31T07:13:06.286Z,80.13
2022-08-31T07:14:06.230Z,80.04
2022-08-31T07:15:06.222Z,79.83
2022-08-31T07:16:06.296Z,79.73
2022-08-31T07:17:06.195Z,80.33
2022-08-31T07:18:10.277Z,80.13
2022-08-31T07:19:08.022Z,79.49
2022-08-31T07:20:06.191Z,79.39
2022-08-31T07:21:06.151Z,78.79
2022-08-31T07:22:06.219Z,78.89
2022-08-31T07:23:06.169Z,79.46
2022-08-31T07:24:06.160Z,78.55
2022-08-31T07:25:06.115Z,78.75
2022-08-31T07:26:06.078Z,78.75
2022-08-31T07:27:06.187Z,77.81
2022-08-31T07:28:06.076Z,77.50
2022-08-31T07:29:06.034Z,77.31
2022-08-31T07:30:06.051Z,77.47
2022-08-31T07:31:06.227Z,76.97
2022-08-31T07:32:06.043Z,77.47
2022-08-31T07:33:06.529Z,76.73
2022-08-31T07:34:06.031Z,77.23
2022-08-31T07:35:06.115Z,76.32
2022-08-31T07:36:05.990Z,75.52
2022-08-31T07:37:05.987Z,75.52
2022-08-31T07:38:05.916Z,75.82
2022-08-31T07:39:05.950Z,75.72
2022-08-31T07:40:07.856Z,75.62
2022-08-31T07:41:08.137Z,75.89
2022-08-31T07:42:05.925Z,75.89
2022-08-31T07:43:05.927Z,75.68
2022-08-31T07:44:05.935Z,74.98
2022-08-31T07:45:05.892Z,74.88
2022-08-31T07:46:05.895Z,75.35
2022-08-31T07:47:05.850Z,74.65
2022-08-31T07:48:05.818Z,74.04
2022-08-31T07:49:05.859Z,74.24
2022-08-31T07:50:05.836Z,74.11
2022-08-31T07:51:05.840Z,73.30
2022-08-31T07:52:05.805Z,73.41
2022-08-31T07:53:05.808Z,73.41
2022-08-31T07:54:05.852Z,72.90
2022-08-31T07:55:05.796Z,73.27
2022-08-31T07:56:05.893Z,72.67
2022-08-31T07:57:05.752Z,72.10
2022-08-31T07:58:05.809Z,72.47
2022-08-31T07:59:06.936Z,72.97
2022-08-31T08:00:05.697Z,72.47
2022-08-31T08:01:05.722Z,72.24
2022-08-31T08:02:05.828Z,72.27
2022-08-31T08:03:05.791Z,72.47
2022-08-31T08:04:05.644Z,72.24
2022-08-31T08:05:05.700Z,72.03
2022-08-31T08:06:05.656Z,71.53
2022-08-31T08:07:05.667Z,71.56
2022-08-31T08:08:08.347Z,72.13
2022-08-31T08:09:22.510Z,71.97
2022-08-31T08:10:07.620Z,72.03
2022-08-31T08:11:05.623Z,72.03
2022-08-31T08:12:05.605Z,72.06
2022-08-31T08:13:05.556Z,72.17
2022-08-31T08:14:08.585Z,73.03
2022-08-31T08:15:06.573Z,72.43
2022-08-31T08:16:05.611Z,71.43
2022-08-31T08:17:05.791Z,71.33
2022-08-31T08:18:05.666Z,71.13
2022-08-31T08:19:05.501Z,71.09
2022-08-31T08:20:05.590Z,71.20
2022-08-31T08:21:05.486Z,70.89
2022-08-31T08:22:05.509Z,70.83
2022-08-31T08:23:05.486Z,71.13
2022-08-31T08:24:06.482Z,70.83
2022-08-31T08:25:05.434Z,71.33
2022-08-31T08:26:05.396Z,71.43
2022-08-31T08:27:05.435Z,71.73
2022-08-31T08:28:22.788Z,70.89
2022-08-31T08:29:06.369Z,71.20
2022-08-31T08:30:05.369Z,70.89
2022-08-31T08:31:05.456Z,70.89
2022-08-31T08:32:05.367Z,70.89
2022-08-31T08:33:05.307Z,70.96
2022-08-31T08:34:05.284Z,70.36
2022-08-31T08:35:05.334Z,69.73
2022-08-31T08:36:05.253Z,69.76
2022-08-31T08:37:05.263Z,70.12
2022-08-31T08:38:07.939Z,69.93
2022-08-31T08:39:06.241Z,68.79
2022-08-31T08:40:05.295Z,68.59
2022-08-31T08:41:05.204Z,68.39
2022-08-31T08:42:05.206Z,68.09
2022-08-31T08:43:05.175Z,68.39
2022-08-31T08:44:05.171Z,67.49
2022-08-31T08:45:05.158Z,67.69
2022-08-31T08:46:25.306Z,68.69
2022-08-31T08:47:07.172Z,67.89
2022-08-31T08:48:05.147Z,68.16
2022-08-31T08:49:05.107Z,67.86
2022-08-31T08:50:05.116Z,67.55
2022-08-31T08:51:05.136Z,67.43
2022-08-31T08:52:05.082Z,68.05
2022-08-31T08:53:05.091Z,67.16
2022-08-31T08:54:05.075Z,66.78
2022-08-31T08:55:05.066Z,67.89
2022-08-31T08:56:29.628Z,67.49
2022-08-31T08:57:07.056Z,67.99
2022-08-31T08:58:05.055Z,67.49
2022-08-31T08:59:08.622Z,67.79
2022-08-31T09:00:07.008Z,67.66
2022-08-31T09:01:05.009Z,68.16
2022-08-31T09:02:05.184Z,67.89
2022-08-31T09:03:05.004Z,67.46
2022-08-31T09:04:04.961Z,67.36
2022-08-31T09:05:04.940Z,67.55
2022-08-31T09:06:04.955Z,67.36
2022-08-31T09:07:04.902Z,67.46
2022-08-31T09:08:05.016Z,66.25
2022-08-31T09:09:04.892Z,66.55
2022-08-31T09:10:04.902Z,67.02
2022-08-31T09:11:04.893Z,66.75
2022-08-31T09:12:04.853Z,66.75
2022-08-31T09:13:04.868Z,67.13
2022-08-31T09:14:04.857Z,65.92
2022-08-31T09:15:04.830Z,65.86
2022-08-31T09:16:04.902Z,66.96
2022-08-31T09:17:04.820Z,67.02
2022-08-31T09:18:04.808Z,66.82
2022-08-31T09:19:04.803Z,66.02
2022-08-31T09:20:04.777Z,65.62
2022-08-31T09:21:04.773Z,65.75
2022-08-31T09:22:04.743Z,65.86
2022-08-31T09:23:04.733Z,66.05
2022-08-31T09:24:05.654Z,66.25
2022-08-31T09:25:04.705Z,65.95
2022-08-31T09:26:08.233Z,66.66
2022-08-31T09:27:05.715Z,66.25
2022-08-31T09:28:04.678Z,65.55
2022-08-31T09:29:04.697Z,66.75
2022-08-31T09:30:04.684Z,65.92
2022-08-31T09:31:04.715Z,65.62
2022-08-31T09:32:06.339Z,65.62
2022-08-31T09:33:05.626Z,65.92
2022-08-31T09:34:04.617Z,65.69
2022-08-31T09:35:04.623Z,65.33
2022-08-31T09:36:04.606Z,65.83
2022-08-31T09:37:04.654Z,65.42
2022-08-31T09:38:04.594Z,65.72
2022-08-31T09:39:04.555Z,65.02
2022-08-31T09:40:07.330Z,65.92
2022-08-31T09:41:05.550Z,65.33
2022-08-31T09:42:04.546Z,65.02
2022-08-31T09:43:04.516Z,65.12
2022-08-31T09:44:04.531Z,64.99
2022-08-31T09:45:04.534Z,65.19
2022-08-31T09:46:04.539Z,63.49
2022-08-31T09:47:04.462Z,64.09
2022-08-31T09:48:04.482Z,64.00
2022-08-31T09:49:04.526Z,64.00
2022-08-31T09:50:04.463Z,63.72
2022-08-31T09:51:04.422Z,63.72
2022-08-31T09:52:04.424Z,64.25
2022-08-31T09:53:04.419Z,65.05
2022-08-31T09:54:04.403Z,64.98
2022-08-31T09:55:04.458Z,65.12
2022-08-31T09:56:04.375Z,66.02
2022-08-31T09:57:04.383Z,66.15
2022-08-31T09:58:04.389Z,66.72
2022-08-31T09:59:04.339Z,66.72
2022-08-31T10:00:04.356Z,65.89
2022-08-31T10:01:04.408Z,65.09
2022-08-31T10:02:06.092Z,65.09
2022-08-31T10:03:06.620Z,65.59
2022-08-31T10:04:05.291Z,65.25
2022-08-31T10:05:04.379Z,65.36
2022-08-31T10:06:04.276Z,63.56
2022-08-31T10:07:04.279Z,63.65
2022-08-31T10:08:04.256Z,64.45
2022-08-31T10:09:04.268Z,64.36
2022-08-31T10:10:04.236Z,63.56
2022-08-31T10:11:04.227Z,63.53
2022-08-31T10:12:04.187Z,63.65
2022-08-31T10:13:04.192Z,63.08
2022-08-31T10:14:04.220Z,63.39
2022-08-31T10:15:04.187Z,63.39
2022-08-31T10:16:04.246Z,63.89
2022-08-31T10:17:04.176Z,63.35
2022-08-31T10:18:05.136Z,62.85
2022-08-31T10:19:04.116Z,63.45
2022-08-31T10:20:05.124Z,63.06
2022-08-31T10:21:04.256Z,62.05
2022-08-31T10:22:04.577Z,61.35
2022-08-31T10:23:04.077Z,61.25
2022-08-31T10:24:05.000Z,62.25
2022-08-31T10:25:04.080Z,62.68
2022-08-31T10:26:04.081Z,62.75
2022-08-31T10:27:04.038Z,62.65
2022-08-31T10:28:04.012Z,62.85
2022-08-31T10:29:04.133Z,62.82
2022-08-31T10:30:04.100Z,61.89
2022-08-31T10:31:05.264Z,61.09
2022-08-31T10:32:04.225Z,61.59
2022-08-31T10:33:04.046Z,60.69
2022-08-31T10:34:04.029Z,61.69
2022-08-31T10:35:04.029Z,60.49
2022-08-31T10:36:04.115Z,61.02
2022-08-31T10:37:03.966Z,61.52
2022-08-31T10:38:04.083Z,61.02
2022-08-31T10:39:04.032Z,61.02
2022-08-31T10:40:04.021Z,60.35
2022-08-31T10:41:04.056Z,60.82
2022-08-31T10:42:03.909Z,61.15
2022-08-31T10:43:03.889Z,62.35
2022-08-31T10:44:03.949Z,61.65
2022-08-31T10:45:04.010Z,61.65
2022-08-31T10:46:03.945Z,61.02
2022-08-31T10:47:04.809Z,61.02
2022-08-31T10:48:03.858Z,61.12
2022-08-31T10:49:03.946Z,60.92
2022-08-31T10:50:03.805Z,59.59
2022-08-31T10:51:03.840Z,60.39
2022-08-31T10:52:03.842Z,60.27
2022-08-31T10:53:03.846Z,59.74
2022-08-31T10:54:03.805Z,59.44
2022-08-31T10:55:03.954Z,59.44
2022-08-31T10:56:03.998Z,59.11
2022-08-31T10:57:03.799Z,59.41
2022-08-31T10:58:03.722Z,59.31
2022-08-31T10:59:04.814Z,58.51
2022-08-31T11:00:03.698Z,58.88
2022-08-31T11:01:03.688Z,58.28
2022-08-31T11:02:03.638Z,57.95
2022-08-31T11:03:03.658Z,58.88
2022-08-31T11:04:03.665Z,57.18
2022-08-31T11:05:03.614Z,57.68
2022-08-31T11:06:03.623Z,58.06
2022-08-31T11:07:03.590Z,56.59
2022-08-31T11:08:03.602Z,56.38
2022-08-31T11:09:03.682Z,57.21
2022-08-31T11:10:03.563Z,56.71
2022-08-31T11:11:03.585Z,57.44
2022-08-31T11:12:03.587Z,56.44
2022-08-31T11:13:03.538Z,56.91
2022-08-31T11:14:03.549Z,56.48
2022-08-31T11:15:03.523Z,55.69
2022-08-31T11:16:03.618Z,55.66
2022-08-31T11:17:03.513Z,55.06
2022-08-31T11:18:03.502Z,55.86
2022-08-31T11:19:07.144Z,55.26
2022-08-31T11:20:06.111Z,55.46
2022-08-31T11:21:04.543Z,55.26
2022-08-31T11:22:03.446Z,55.49
2022-08-31T11:23:03.423Z,55.29
2022-08-31T11:24:03.453Z,55.58
2022-08-31T11:25:03.399Z,55.71
2022-08-31T11:26:03.491Z,55.41
2022-08-31T11:27:03.389Z,55.24
2022-08-31T11:28:03.375Z,56.34
2022-08-31T11:29:03.383Z,55.51
2022-08-31T11:30:03.361Z,56.06
2022-08-31T11:31:03.466Z,54.41
2022-08-31T11:32:03.371Z,53.19
2022-08-31T11:33:03.368Z,53.71
2022-08-31T11:34:16.183Z,54.01
2022-08-31T11:35:05.320Z,53.91
2022-08-31T11:36:06.671Z,53.54
2022-08-31T11:37:04.280Z,53.66
2022-08-31T11:38:04.103Z,54.99
2022-08-31T11:39:03.270Z,54.32
2022-08-31T11:40:03.333Z,55.54
2022-08-31T11:41:03.227Z,56.14
2022-08-31T11:42:03.258Z,55.54
2022-08-31T11:43:03.233Z,55.81
2022-08-31T11:44:03.211Z,55.74
2022-08-31T11:45:03.180Z,55.66
2022-08-31T11:46:03.241Z,56.87
2022-08-31T11:47:05.032Z,57.24
2022-08-31T11:48:03.197Z,56.84
2022-08-31T11:49:03.144Z,55.84
2022-08-31T11:50:03.145Z,56.04
2022-08-31T11:51:03.120Z,55.74
2022-08-31T11:52:03.117Z,55.84
2022-08-31T11:53:03.109Z,55.21
2022-08-31T11:54:03.117Z,55.02
2022-08-31T11:55:03.081Z,54.34
2022-08-31T11:56:03.094Z,54.02
2022-08-31T11:57:03.052Z,55.27
2022-08-31T11:58:03.061Z,55.54
2022-08-31T11:59:03.049Z,55.66
2022-08-31T12:00:04.029Z,56.34
2022-08-31T12:01:03.089Z,55.54
2022-08-31T12:02:03.133Z,55.34
2022-08-31T12:03:02.997Z,55.44
2022-08-31T12:04:03.027Z,54.24
2022-08-31T12:05:03.299Z,54.44
2022-08-31T12:06:02.982Z,53.94
2022-08-31T12:07:03.020Z,53.54
2022-08-31T12:08:02.952Z,54.04
2022-08-31T12:09:02.923Z,53.84
2022-08-31T12:10:02.965Z,53.67
2022-08-31T12:11:02.889Z,54.37
2022-08-31T12:12:02.876Z,54.77
2022-08-31T12:13:02.908Z,55.14
2022-08-31T12:14:02.885Z,54.84
2022-08-31T12:15:02.892Z,54.54
2022-08-31T12:16:02.908Z,54.34
2022-08-31T12:17:02.865Z,53.72
2022-08-31T12:18:02.839Z,53.44
2022-08-31T12:19:02.856Z,54.22
2022-08-31T12:20:02.907Z,54.11
2022-08-31T12:21:02.817Z,54.02
2022-08-31T12:22:02.783Z,53.92
2022-08-31T12:23:02.755Z,53.72
2022-08-31T12:24:02.761Z,53.74
2022-08-31T12:25:02.775Z,52.94
2022-08-31T12:26:02.768Z,52.14
2022-08-31T12:27:02.896Z,52.77
2022-08-31T12:28:02.737Z,53.17
2022-08-31T12:29:02.705Z,52.89
2022-08-31T12:30:02.692Z,53.27
2022-08-31T12:31:03.068Z,54.27
2022-08-31T12:32:03.389Z,54.19
2022-08-31T12:33:02.704Z,53.77
2022-08-31T12:34:02.682Z,53.97
2022-08-31T12:35:02.706Z,53.69
2022-08-31T12:36:02.714Z,53.97
2022-08-31T12:37:02.743Z,54.37
2022-08-31T12:38:02.755Z,54.67
2022-08-31T12:39:02.642Z,54.67
2022-08-31T12:40:02.708Z,54.67
2022-08-31T12:41:02.624Z,54.17
2022-08-31T12:42:02.628Z,55.47
2022-08-31T12:43:02.616Z,56.07
2022-08-31T12:44:03.850Z,55.40
2022-08-31T12:45:02.680Z,55.99
2022-08-31T12:46:03.175Z,55.87
2022-08-31T12:47:02.594Z,55.36
2022-08-31T12:48:02.537Z,54.57
2022-08-31T12:49:02.578Z,53.87
2022-08-31T12:50:02.517Z,54.49
2022-08-31T12:51:02.553Z,54.27
2022-08-31T12:52:02.532Z,53.97